sensor_id;sensor_type;location;lat;lon;timestamp;P1;durP1;ratioP1;P2;durP2;ratioP2
15449;SDS011;7826;49.784;9.934;2023-06-10T00:02:01;6.27;;;4.60;;
15449;SDS011;7826;49.784;9.934;2023-06-10T00:04:27;7.90;;;5.27;;
15449;SDS011;7826;49.784;9.934;2023-06-10T00:06:54;6.83;;;4.60;;
15449;SDS011;7826;49.784;9.934;2023-06-10T00:09:21;6.10;;;5.07;;
15449;SDS011;7826;49.784;9.934;2023-06-10T00:11:48;10.97;;;5.67;;
15449;SDS011;7826;49.784;9.934;2023-06-10T00:14:15;9.03;;;5.53;;
15449;SDS011;7826;49.784;9.934;2023-06-10T00:16:41;10.50;;;5.23;;
15449;SDS011;7826;49.784;9.934;2023-06-10T00:19:11;7.80;;;4.40;;
15449;SDS011;7826;49.784;9.934;2023-06-10T00:21:39;6.80;;;5.30;;
15449;SDS011;7826;49.784;9.934;2023-06-10T00:24:06;10.03;;;5.33;;
15449;SDS011;7826;49.784;9.934;2023-06-10T00:26:38;6.10;;;4.40;;
15449;SDS011;7826;49.784;9.934;2023-06-10T00:29:05;9.57;;;5.07;;
15449;SDS011;7826;49.784;9.934;2023-06-10T00:31:33;8.53;;;4.90;;
15449;SDS011;7826;49.784;9.934;2023-06-10T00:34:01;7.00;;;4.90;;
15449;SDS011;7826;49.784;9.934;2023-06-10T00:36:28;7.20;;;5.23;;
15449;SDS011;7826;49.784;9.934;2023-06-10T00:38:56;7.83;;;4.70;;
15449;SDS011;7826;49.784;9.934;2023-06-10T00:41:23;6.50;;;5.37;;
15449;SDS011;7826;49.784;9.934;2023-06-10T00:43:49;8.27;;;4.80;;
15449;SDS011;7826;49.784;9.934;2023-06-10T00:46:16;7.50;;;4.87;;
15449;SDS011;7826;49.784;9.934;2023-06-10T00:48:44;8.37;;;4.93;;
15449;SDS011;7826;49.784;9.934;2023-06-10T00:51:11;11.33;;;5.50;;
15449;SDS011;7826;49.784;9.934;2023-06-10T00:53:39;9.57;;;5.27;;
15449;SDS011;7826;49.784;9.934;2023-06-10T00:56:06;9.63;;;5.00;;
15449;SDS011;7826;49.784;9.934;2023-06-10T00:58:33;8.37;;;4.57;;
15449;SDS011;7826;49.784;9.934;2023-06-10T01:01:02;7.63;;;4.80;;
15449;SDS011;7826;49.784;9.934;2023-06-10T01:03:29;7.87;;;5.37;;
15449;SDS011;7826;49.784;9.934;2023-06-10T01:06:03;7.03;;;5.10;;
15449;SDS011;7826;49.784;9.934;2023-06-10T01:11:11;12.30;;;5.70;;
15449;SDS011;7826;49.784;9.934;2023-06-10T01:13:45;7.57;;;4.40;;
15449;SDS011;7826;49.784;9.934;2023-06-10T01:16:13;6.63;;;4.60;;
15449;SDS011;7826;49.784;9.934;2023-06-10T01:18:40;7.07;;;4.87;;
15449;SDS011;7826;49.784;9.934;2023-06-10T01:21:07;9.53;;;4.70;;
15449;SDS011;7826;49.784;9.934;2023-06-10T01:23:35;9.73;;;4.70;;
15449;SDS011;7826;49.784;9.934;2023-06-10T01:26:10;6.40;;;4.60;;
15449;SDS011;7826;49.784;9.934;2023-06-10T01:28:52;9.97;;;5.00;;
15449;SDS011;7826;49.784;9.934;2023-06-10T01:31:36;33.20;;;7.70;;
15449;SDS011;7826;49.784;9.934;2023-06-10T01:34:10;11.53;;;5.20;;
15449;SDS011;7826;49.784;9.934;2023-06-10T01:36:40;8.83;;;5.23;;
15449;SDS011;7826;49.784;9.934;2023-06-10T01:39:10;8.93;;;4.23;;
15449;SDS011;7826;49.784;9.934;2023-06-10T01:41:37;9.37;;;5.10;;
15449;SDS011;7826;49.784;9.934;2023-06-10T01:44:05;10.70;;;5.23;;
15449;SDS011;7826;49.784;9.934;2023-06-10T01:46:32;10.53;;;4.97;;
15449;SDS011;7826;49.784;9.934;2023-06-10T01:48:59;9.40;;;4.77;;
15449;SDS011;7826;49.784;9.934;2023-06-10T01:51:25;8.20;;;4.43;;
15449;SDS011;7826;49.784;9.934;2023-06-10T01:53:52;6.47;;;4.80;;
15449;SDS011;7826;49.784;9.934;2023-06-10T01:56:18;7.20;;;4.70;;
15449;SDS011;7826;49.784;9.934;2023-06-10T01:58:46;9.03;;;5.10;;
15449;SDS011;7826;49.784;9.934;2023-06-10T02:01:13;8.20;;;4.87;;
15449;SDS011;7826;49.784;9.934;2023-06-10T02:03:40;9.00;;;4.63;;
15449;SDS011;7826;49.784;9.934;2023-06-10T02:06:06;8.80;;;4.87;;
15449;SDS011;7826;49.784;9.934;2023-06-10T02:08:33;8.27;;;4.83;;
15449;SDS011;7826;49.784;9.934;2023-06-10T02:11:00;11.20;;;5.40;;
15449;SDS011;7826;49.784;9.934;2023-06-10T02:13:27;9.87;;;4.97;;
15449;SDS011;7826;49.784;9.934;2023-06-10T02:15:53;9.63;;;5.47;;
15449;SDS011;7826;49.784;9.934;2023-06-10T02:18:20;10.60;;;4.80;;
15449;SDS011;7826;49.784;9.934;2023-06-10T02:20:46;8.77;;;4.40;;
15449;SDS011;7826;49.784;9.934;2023-06-10T02:23:13;9.30;;;4.80;;
15449;SDS011;7826;49.784;9.934;2023-06-10T02:25:39;9.33;;;4.67;;
15449;SDS011;7826;49.784;9.934;2023-06-10T02:28:06;9.37;;;4.90;;
15449;SDS011;7826;49.784;9.934;2023-06-10T02:30:32;8.67;;;4.63;;
15449;SDS011;7826;49.784;9.934;2023-06-10T02:32:59;8.60;;;4.70;;
15449;SDS011;7826;49.784;9.934;2023-06-10T02:35:27;9.53;;;4.40;;
15449;SDS011;7826;49.784;9.934;2023-06-10T02:37:53;9.33;;;4.90;;
15449;SDS011;7826;49.784;9.934;2023-06-10T02:40:20;7.17;;;5.03;;
15449;SDS011;7826;49.784;9.934;2023-06-10T02:42:46;12.43;;;5.03;;
15449;SDS011;7826;49.784;9.934;2023-06-10T02:45:13;8.87;;;4.47;;
15449;SDS011;7826;49.784;9.934;2023-06-10T02:47:39;9.20;;;4.70;;
15449;SDS011;7826;49.784;9.934;2023-06-10T02:50:07;7.60;;;4.60;;
15449;SDS011;7826;49.784;9.934;2023-06-10T02:52:34;12.17;;;4.83;;
15449;SDS011;7826;49.784;9.934;2023-06-10T02:55:00;8.97;;;5.07;;
15449;SDS011;7826;49.784;9.934;2023-06-10T02:57:27;6.67;;;4.57;;
15449;SDS011;7826;49.784;9.934;2023-06-10T02:59:53;7.13;;;4.50;;
15449;SDS011;7826;49.784;9.934;2023-06-10T03:02:20;7.30;;;4.73;;
15449;SDS011;7826;49.784;9.934;2023-06-10T03:04:47;10.80;;;5.00;;
15449;SDS011;7826;49.784;9.934;2023-06-10T03:07:16;8.87;;;4.73;;
15449;SDS011;7826;49.784;9.934;2023-06-10T03:09:43;9.57;;;4.83;;
15449;SDS011;7826;49.784;9.934;2023-06-10T03:12:10;7.67;;;4.67;;
15449;SDS011;7826;49.784;9.934;2023-06-10T03:14:37;9.43;;;4.67;;
15449;SDS011;7826;49.784;9.934;2023-06-10T03:17:04;9.90;;;5.37;;
15449;SDS011;7826;49.784;9.934;2023-06-10T03:19:32;8.13;;;4.60;;
15449;SDS011;7826;49.784;9.934;2023-06-10T03:22:09;5.20;;;4.70;;
15449;SDS011;7826;49.784;9.934;2023-06-10T03:24:37;8.80;;;4.40;;
15449;SDS011;7826;49.784;9.934;2023-06-10T03:27:06;8.60;;;4.97;;
15449;SDS011;7826;49.784;9.934;2023-06-10T03:29:34;10.20;;;4.13;;
15449;SDS011;7826;49.784;9.934;2023-06-10T03:32:00;7.07;;;4.47;;
15449;SDS011;7826;49.784;9.934;2023-06-10T03:34:27;8.27;;;5.33;;
15449;SDS011;7826;49.784;9.934;2023-06-10T03:36:54;8.70;;;4.80;;
15449;SDS011;7826;49.784;9.934;2023-06-10T03:39:20;7.70;;;4.00;;
15449;SDS011;7826;49.784;9.934;2023-06-10T03:41:47;6.87;;;4.77;;
15449;SDS011;7826;49.784;9.934;2023-06-10T03:44:13;7.93;;;4.60;;
15449;SDS011;7826;49.784;9.934;2023-06-10T03:46:40;10.27;;;4.97;;
15449;SDS011;7826;49.784;9.934;2023-06-10T03:49:07;10.37;;;4.50;;
15449;SDS011;7826;49.784;9.934;2023-06-10T03:51:35;8.30;;;4.57;;
15449;SDS011;7826;49.784;9.934;2023-06-10T03:54:02;8.60;;;4.90;;
15449;SDS011;7826;49.784;9.934;2023-06-10T03:56:29;13.03;;;5.67;;
15449;SDS011;7826;49.784;9.934;2023-06-10T03:58:56;10.47;;;4.60;;
15449;SDS011;7826;49.784;9.934;2023-06-10T04:01:23;6.83;;;4.23;;
15449;SDS011;7826;49.784;9.934;2023-06-10T04:03:50;11.80;;;4.67;;
15449;SDS011;7826;49.784;9.934;2023-06-10T04:06:20;10.20;;;4.80;;
15449;SDS011;7826;49.784;9.934;2023-06-10T04:08:48;6.93;;;5.00;;
15449;SDS011;7826;49.784;9.934;2023-06-10T04:11:15;10.27;;;4.93;;
15449;SDS011;7826;49.784;9.934;2023-06-10T04:13:41;9.67;;;4.63;;
15449;SDS011;7826;49.784;9.934;2023-06-10T04:16:08;9.87;;;5.10;;
15449;SDS011;7826;49.784;9.934;2023-06-10T04:18:34;7.63;;;4.77;;
15449;SDS011;7826;49.784;9.934;2023-06-10T04:21:01;9.90;;;4.53;;
15449;SDS011;7826;49.784;9.934;2023-06-10T04:23:28;10.83;;;4.97;;
15449;SDS011;7826;49.784;9.934;2023-06-10T04:25:55;9.03;;;5.03;;
15449;SDS011;7826;49.784;9.934;2023-06-10T04:28:21;6.77;;;4.53;;
15449;SDS011;7826;49.784;9.934;2023-06-10T04:30:48;10.03;;;5.00;;
15449;SDS011;7826;49.784;9.934;2023-06-10T04:33:14;9.50;;;4.70;;
15449;SDS011;7826;49.784;9.934;2023-06-10T04:35:41;8.60;;;5.33;;
15449;SDS011;7826;49.784;9.934;2023-06-10T04:38:08;7.50;;;4.53;;
15449;SDS011;7826;49.784;9.934;2023-06-10T04:40:34;10.47;;;5.50;;
15449;SDS011;7826;49.784;9.934;2023-06-10T04:43:01;9.77;;;5.60;;
15449;SDS011;7826;49.784;9.934;2023-06-10T04:45:27;8.03;;;5.20;;
15449;SDS011;7826;49.784;9.934;2023-06-10T04:47:55;11.33;;;5.30;;
15449;SDS011;7826;49.784;9.934;2023-06-10T04:50:23;12.20;;;5.93;;
15449;SDS011;7826;49.784;9.934;2023-06-10T04:52:50;12.53;;;5.37;;
15449;SDS011;7826;49.784;9.934;2023-06-10T04:55:17;8.07;;;5.77;;
15449;SDS011;7826;49.784;9.934;2023-06-10T04:57:43;8.97;;;5.40;;
15449;SDS011;7826;49.784;9.934;2023-06-10T05:00:10;8.77;;;4.83;;
15449;SDS011;7826;49.784;9.934;2023-06-10T05:02:37;9.97;;;5.50;;
15449;SDS011;7826;49.784;9.934;2023-06-10T05:05:03;10.30;;;6.17;;
15449;SDS011;7826;49.784;9.934;2023-06-10T05:07:30;10.87;;;6.07;;
15449;SDS011;7826;49.784;9.934;2023-06-10T05:09:57;11.80;;;6.10;;
15449;SDS011;7826;49.784;9.934;2023-06-10T05:12:23;11.67;;;5.93;;
15449;SDS011;7826;49.784;9.934;2023-06-10T05:14:50;10.67;;;5.67;;
15449;SDS011;7826;49.784;9.934;2023-06-10T05:17:17;10.10;;;6.10;;
15449;SDS011;7826;49.784;9.934;2023-06-10T05:19:43;9.33;;;5.47;;
15449;SDS011;7826;49.784;9.934;2023-06-10T05:22:10;8.50;;;5.40;;
15449;SDS011;7826;49.784;9.934;2023-06-10T05:24:37;13.57;;;5.80;;
15449;SDS011;7826;49.784;9.934;2023-06-10T05:27:04;8.83;;;6.10;;
15449;SDS011;7826;49.784;9.934;2023-06-10T05:29:32;11.20;;;6.20;;
15449;SDS011;7826;49.784;9.934;2023-06-10T05:31:59;9.47;;;6.20;;
15449;SDS011;7826;49.784;9.934;2023-06-10T05:34:29;11.27;;;6.07;;
15449;SDS011;7826;49.784;9.934;2023-06-10T05:36:56;9.23;;;5.70;;
15449;SDS011;7826;49.784;9.934;2023-06-10T05:39:23;8.90;;;6.20;;
15449;SDS011;7826;49.784;9.934;2023-06-10T05:41:49;9.43;;;5.67;;
15449;SDS011;7826;49.784;9.934;2023-06-10T05:44:16;10.73;;;6.00;;
15449;SDS011;7826;49.784;9.934;2023-06-10T05:46:43;8.40;;;5.77;;
15449;SDS011;7826;49.784;9.934;2023-06-10T05:49:09;11.17;;;6.37;;
15449;SDS011;7826;49.784;9.934;2023-06-10T05:51:36;12.10;;;6.83;;
15449;SDS011;7826;49.784;9.934;2023-06-10T05:54:03;9.40;;;6.07;;
15449;SDS011;7826;49.784;9.934;2023-06-10T05:56:29;10.53;;;6.40;;
15449;SDS011;7826;49.784;9.934;2023-06-10T05:58:56;9.40;;;6.57;;
15449;SDS011;7826;49.784;9.934;2023-06-10T06:01:23;11.37;;;6.33;;
15449;SDS011;7826;49.784;9.934;2023-06-10T06:03:49;9.33;;;6.10;;
15449;SDS011;7826;49.784;9.934;2023-06-10T06:06:16;10.90;;;6.67;;
15449;SDS011;7826;49.784;9.934;2023-06-10T06:08:42;9.40;;;6.57;;
15449;SDS011;7826;49.784;9.934;2023-06-10T06:11:09;18.80;;;6.70;;
15449;SDS011;7826;49.784;9.934;2023-06-10T06:13:36;10.53;;;6.13;;
15449;SDS011;7826;49.784;9.934;2023-06-10T06:16:02;9.77;;;6.17;;
15449;SDS011;7826;49.784;9.934;2023-06-10T06:18:29;13.37;;;7.20;;
15449;SDS011;7826;49.784;9.934;2023-06-10T06:20:55;25.63;;;7.23;;
15449;SDS011;7826;49.784;9.934;2023-06-10T06:23:22;13.57;;;6.63;;
15449;SDS011;7826;49.784;9.934;2023-06-10T06:25:48;8.47;;;6.03;;
15449;SDS011;7826;49.784;9.934;2023-06-10T06:28:15;10.13;;;6.50;;
15449;SDS011;7826;49.784;9.934;2023-06-10T06:30:41;11.63;;;6.53;;
15449;SDS011;7826;49.784;9.934;2023-06-10T06:33:08;11.33;;;6.90;;
15449;SDS011;7826;49.784;9.934;2023-06-10T06:35:34;12.77;;;7.00;;
15449;SDS011;7826;49.784;9.934;2023-06-10T06:38:01;9.13;;;6.93;;
15449;SDS011;7826;49.784;9.934;2023-06-10T06:40:29;9.40;;;6.83;;
15449;SDS011;7826;49.784;9.934;2023-06-10T06:42:56;9.47;;;6.60;;
15449;SDS011;7826;49.784;9.934;2023-06-10T06:45:23;11.10;;;6.23;;
15449;SDS011;7826;49.784;9.934;2023-06-10T06:47:49;13.03;;;7.30;;
15449;SDS011;7826;49.784;9.934;2023-06-10T06:50:17;8.87;;;7.27;;
15449;SDS011;7826;49.784;9.934;2023-06-10T06:52:44;11.83;;;7.20;;
15449;SDS011;7826;49.784;9.934;2023-06-10T06:55:10;12.00;;;7.33;;
15449;SDS011;7826;49.784;9.934;2023-06-10T06:57:37;8.07;;;6.90;;
15449;SDS011;7826;49.784;9.934;2023-06-10T07:00:04;12.63;;;7.53;;
15449;SDS011;7826;49.784;9.934;2023-06-10T07:02:31;9.37;;;7.23;;
15449;SDS011;7826;49.784;9.934;2023-06-10T07:04:59;11.27;;;7.53;;
15449;SDS011;7826;49.784;9.934;2023-06-10T07:07:25;10.17;;;7.60;;
15449;SDS011;7826;49.784;9.934;2023-06-10T07:09:52;8.77;;;7.20;;
15449;SDS011;7826;49.784;9.934;2023-06-10T07:12:19;8.83;;;7.47;;
15449;SDS011;7826;49.784;9.934;2023-06-10T07:14:50;11.33;;;8.00;;
15449;SDS011;7826;49.784;9.934;2023-06-10T07:17:17;11.20;;;7.67;;
15449;SDS011;7826;49.784;9.934;2023-06-10T07:19:44;8.40;;;7.47;;
15449;SDS011;7826;49.784;9.934;2023-06-10T07:22:11;12.97;;;7.43;;
15449;SDS011;7826;49.784;9.934;2023-06-10T07:24:38;13.17;;;7.67;;
15449;SDS011;7826;49.784;9.934;2023-06-10T07:27:05;11.00;;;6.90;;
15449;SDS011;7826;49.784;9.934;2023-06-10T07:29:32;11.10;;;7.53;;
15449;SDS011;7826;49.784;9.934;2023-06-10T07:31:59;14.03;;;9.10;;
15449;SDS011;7826;49.784;9.934;2023-06-10T07:34:25;10.67;;;7.27;;
15449;SDS011;7826;49.784;9.934;2023-06-10T07:36:52;10.07;;;7.53;;
15449;SDS011;7826;49.784;9.934;2023-06-10T07:39:19;13.47;;;8.03;;
15449;SDS011;7826;49.784;9.934;2023-06-10T07:41:45;11.83;;;7.60;;
15449;SDS011;7826;49.784;9.934;2023-06-10T07:44:12;11.97;;;7.20;;
15449;SDS011;7826;49.784;9.934;2023-06-10T07:46:38;8.60;;;7.67;;
15449;SDS011;7826;49.784;9.934;2023-06-10T07:49:05;14.80;;;8.43;;
15449;SDS011;7826;49.784;9.934;2023-06-10T07:51:31;12.43;;;7.97;;
15449;SDS011;7826;49.784;9.934;2023-06-10T07:53:58;8.83;;;7.60;;
15449;SDS011;7826;49.784;9.934;2023-06-10T07:56:24;9.20;;;7.40;;
15449;SDS011;7826;49.784;9.934;2023-06-10T07:58:52;12.47;;;8.50;;
15449;SDS011;7826;49.784;9.934;2023-06-10T08:01:18;9.83;;;8.67;;
15449;SDS011;7826;49.784;9.934;2023-06-10T08:03:45;12.83;;;8.80;;
15449;SDS011;7826;49.784;9.934;2023-06-10T08:06:12;9.70;;;8.10;;
15449;SDS011;7826;49.784;9.934;2023-06-10T08:08:38;10.93;;;8.10;;
15449;SDS011;7826;49.784;9.934;2023-06-10T08:11:08;9.37;;;7.53;;
15449;SDS011;7826;49.784;9.934;2023-06-10T08:13:38;9.27;;;7.87;;
15449;SDS011;7826;49.784;9.934;2023-06-10T08:16:05;9.07;;;7.60;;
15449;SDS011;7826;49.784;9.934;2023-06-10T08:18:33;9.50;;;6.77;;
15449;SDS011;7826;49.784;9.934;2023-06-10T08:20:59;8.40;;;7.40;;
15449;SDS011;7826;49.784;9.934;2023-06-10T08:23:26;8.33;;;7.40;;
15449;SDS011;7826;49.784;9.934;2023-06-10T08:25:52;10.00;;;8.07;;
15449;SDS011;7826;49.784;9.934;2023-06-10T08:28:19;8.30;;;7.37;;
15449;SDS011;7826;49.784;9.934;2023-06-10T08:30:45;10.17;;;7.23;;
15449;SDS011;7826;49.784;9.934;2023-06-10T08:33:12;9.83;;;7.27;;
15449;SDS011;7826;49.784;9.934;2023-06-10T08:35:38;10.83;;;8.00;;
15449;SDS011;7826;49.784;9.934;2023-06-10T08:38:05;9.57;;;7.40;;
15449;SDS011;7826;49.784;9.934;2023-06-10T08:40:32;7.60;;;6.90;;
15449;SDS011;7826;49.784;9.934;2023-06-10T08:43:06;10.07;;;7.43;;
15449;SDS011;7826;49.784;9.934;2023-06-10T08:45:34;11.83;;;7.70;;
15449;SDS011;7826;49.784;9.934;2023-06-10T08:48:02;9.00;;;7.80;;
15449;SDS011;7826;49.784;9.934;2023-06-10T08:50:37;10.13;;;7.00;;
15449;SDS011;7826;49.784;9.934;2023-06-10T08:53:04;14.30;;;7.33;;
15449;SDS011;7826;49.784;9.934;2023-06-10T08:55:53;9.23;;;7.80;;
15449;SDS011;7826;49.784;9.934;2023-06-10T08:58:19;8.30;;;7.50;;
15449;SDS011;7826;49.784;9.934;2023-06-10T09:00:46;9.97;;;7.40;;
15449;SDS011;7826;49.784;9.934;2023-06-10T09:03:13;12.03;;;7.53;;
15449;SDS011;7826;49.784;9.934;2023-06-10T09:05:39;8.83;;;7.50;;
15449;SDS011;7826;49.784;9.934;2023-06-10T09:08:07;9.93;;;7.57;;
15449;SDS011;7826;49.784;9.934;2023-06-10T09:10:35;7.80;;;7.10;;
15449;SDS011;7826;49.784;9.934;2023-06-10T09:13:02;8.17;;;7.37;;
15449;SDS011;7826;49.784;9.934;2023-06-10T09:15:29;8.47;;;7.10;;
15449;SDS011;7826;49.784;9.934;2023-06-10T09:17:55;9.37;;;6.80;;
15449;SDS011;7826;49.784;9.934;2023-06-10T09:20:22;9.07;;;7.97;;
15449;SDS011;7826;49.784;9.934;2023-06-10T09:22:49;11.93;;;7.60;;
15449;SDS011;7826;49.784;9.934;2023-06-10T09:25:16;8.10;;;7.30;;
15449;SDS011;7826;49.784;9.934;2023-06-10T09:27:46;12.27;;;7.63;;
15449;SDS011;7826;49.784;9.934;2023-06-10T09:32:57;11.23;;;7.83;;
15449;SDS011;7826;49.784;9.934;2023-06-10T09:35:25;8.37;;;7.47;;
15449;SDS011;7826;49.784;9.934;2023-06-10T09:37:52;8.43;;;7.53;;
15449;SDS011;7826;49.784;9.934;2023-06-10T09:40:19;10.90;;;7.40;;
15449;SDS011;7826;49.784;9.934;2023-06-10T09:42:46;8.13;;;7.23;;
15449;SDS011;7826;49.784;9.934;2023-06-10T09:45:23;9.53;;;7.83;;
15449;SDS011;7826;49.784;9.934;2023-06-10T09:47:53;8.87;;;7.47;;
15449;SDS011;7826;49.784;9.934;2023-06-10T09:50:21;10.83;;;7.73;;
15449;SDS011;7826;49.784;9.934;2023-06-10T09:52:48;8.17;;;7.47;;
15449;SDS011;7826;49.784;9.934;2023-06-10T09:55:14;7.87;;;7.13;;
15449;SDS011;7826;49.784;9.934;2023-06-10T09:57:41;8.83;;;7.60;;
15449;SDS011;7826;49.784;9.934;2023-06-10T10:00:10;15.40;;;8.03;;
15449;SDS011;7826;49.784;9.934;2023-06-10T10:02:47;11.73;;;7.73;;
15449;SDS011;7826;49.784;9.934;2023-06-10T10:05:15;9.80;;;7.90;;
15449;SDS011;7826;49.784;9.934;2023-06-10T10:07:43;9.27;;;7.27;;
15449;SDS011;7826;49.784;9.934;2023-06-10T10:10:10;11.23;;;7.77;;
15449;SDS011;7826;49.784;9.934;2023-06-10T10:12:38;8.30;;;7.40;;
15449;SDS011;7826;49.784;9.934;2023-06-10T10:15:06;9.20;;;7.07;;
15449;SDS011;7826;49.784;9.934;2023-06-10T10:17:38;13.38;;;7.75;;
15449;SDS011;7826;49.784;9.934;2023-06-10T10:20:09;9.03;;;8.13;;
15449;SDS011;7826;49.784;9.934;2023-06-10T10:22:41;8.80;;;8.00;;
15449;SDS011;7826;49.784;9.934;2023-06-10T10:25:23;8.70;;;7.63;;
15449;SDS011;7826;49.784;9.934;2023-06-10T10:27:52;8.30;;;7.50;;
15449;SDS011;7826;49.784;9.934;2023-06-10T10:30:22;8.67;;;7.30;;
15449;SDS011;7826;49.784;9.934;2023-06-10T10:32:57;9.03;;;7.30;;
15449;SDS011;7826;49.784;9.934;2023-06-10T10:35:31;7.67;;;6.87;;
15449;SDS011;7826;49.784;9.934;2023-06-10T10:37:59;8.50;;;7.60;;
15449;SDS011;7826;49.784;9.934;2023-06-10T10:40:27;8.35;;;7.53;;
15449;SDS011;7826;49.784;9.934;2023-06-10T10:42:56;15.90;;;8.45;;
15449;SDS011;7826;49.784;9.934;2023-06-10T10:45:24;7.80;;;7.07;;
15449;SDS011;7826;49.784;9.934;2023-06-10T10:47:53;9.13;;;7.90;;
15449;SDS011;7826;49.784;9.934;2023-06-10T10:50:23;12.70;;;7.72;;
15449;SDS011;7826;49.784;9.934;2023-06-10T10:55:22;9.80;;;7.33;;
15449;SDS011;7826;49.784;9.934;2023-06-10T10:57:56;10.80;;;7.35;;
15449;SDS011;7826;49.784;9.934;2023-06-10T11:00:28;13.27;;;7.13;;
15449;SDS011;7826;49.784;9.934;2023-06-10T11:02:58;10.63;;;7.53;;
15449;SDS011;7826;49.784;9.934;2023-06-10T11:05:38;8.23;;;7.38;;
15449;SDS011;7826;49.784;9.934;2023-06-10T11:08:05;12.07;;;7.80;;
15449;SDS011;7826;49.784;9.934;2023-06-10T11:10:37;9.50;;;7.45;;
15449;SDS011;7826;49.784;9.934;2023-06-10T11:13:09;8.10;;;7.25;;
15449;SDS011;7826;49.784;9.934;2023-06-10T11:15:40;8.52;;;7.68;;
15449;SDS011;7826;49.784;9.934;2023-06-10T11:20:41;10.53;;;7.87;;
15449;SDS011;7826;49.784;9.934;2023-06-10T11:29:00;8.40;;;7.53;;
15449;SDS011;7826;49.784;9.934;2023-06-10T11:34:07;11.57;;;7.60;;
15449;SDS011;7826;49.784;9.934;2023-06-10T11:36:36;7.53;;;6.83;;
15449;SDS011;7826;49.784;9.934;2023-06-10T11:39:06;11.57;;;7.60;;
15449;SDS011;7826;49.784;9.934;2023-06-10T11:41:33;9.95;;;7.07;;
15449;SDS011;7826;49.784;9.934;2023-06-10T11:44:02;8.85;;;7.38;;
15449;SDS011;7826;49.784;9.934;2023-06-10T11:46:39;7.30;;;6.60;;
15449;SDS011;7826;49.784;9.934;2023-06-10T11:49:08;8.80;;;6.63;;
15449;SDS011;7826;49.784;9.934;2023-06-10T11:51:35;7.53;;;6.70;;
15449;SDS011;7826;49.784;9.934;2023-06-10T11:54:10;9.27;;;6.80;;
15449;SDS011;7826;49.784;9.934;2023-06-10T11:56:37;7.33;;;6.60;;
15449;SDS011;7826;49.784;9.934;2023-06-10T11:59:04;8.80;;;6.83;;
15449;SDS011;7826;49.784;9.934;2023-06-10T12:01:33;7.33;;;6.43;;
15449;SDS011;7826;49.784;9.934;2023-06-10T12:04:06;6.77;;;6.17;;
15449;SDS011;7826;49.784;9.934;2023-06-10T12:09:22;6.40;;;5.80;;
15449;SDS011;7826;49.784;9.934;2023-06-10T12:12:03;7.07;;;6.37;;
15449;SDS011;7826;49.784;9.934;2023-06-10T12:17:23;9.03;;;6.33;;
15449;SDS011;7826;49.784;9.934;2023-06-10T12:20:09;15.60;;;6.90;;
15449;SDS011;7826;49.784;9.934;2023-06-10T12:22:59;9.00;;;6.50;;
15449;SDS011;7826;49.784;9.934;2023-06-10T12:25:27;7.78;;;6.05;;
15449;SDS011;7826;49.784;9.934;2023-06-10T12:27:55;6.93;;;6.22;;
15449;SDS011;7826;49.784;9.934;2023-06-10T12:30:24;7.93;;;6.43;;
15449;SDS011;7826;49.784;9.934;2023-06-10T12:32:53;6.90;;;6.20;;
15449;SDS011;7826;49.784;9.934;2023-06-10T12:35:24;8.05;;;6.32;;
15449;SDS011;7826;49.784;9.934;2023-06-10T12:40:37;6.75;;;5.78;;
15449;SDS011;7826;49.784;9.934;2023-06-10T12:43:06;6.60;;;5.93;;
15449;SDS011;7826;49.784;9.934;2023-06-10T12:45:36;6.93;;;5.70;;
15449;SDS011;7826;49.784;9.934;2023-06-10T12:48:11;8.23;;;5.73;;
15449;SDS011;7826;49.784;9.934;2023-06-10T12:50:43;6.38;;;5.72;;
15449;SDS011;7826;49.784;9.934;2023-06-10T12:53:11;6.10;;;5.50;;
15449;SDS011;7826;49.784;9.934;2023-06-10T12:55:38;5.82;;;5.32;;
15449;SDS011;7826;49.784;9.934;2023-06-10T12:58:04;10.77;;;6.00;;
15449;SDS011;7826;49.784;9.934;2023-06-10T13:00:31;6.82;;;5.72;;
15449;SDS011;7826;49.784;9.934;2023-06-10T13:02:59;9.15;;;5.40;;
15449;SDS011;7826;49.784;9.934;2023-06-10T13:05:26;9.98;;;6.05;;
15449;SDS011;7826;49.784;9.934;2023-06-10T13:07:53;8.33;;;5.97;;
15449;SDS011;7826;49.784;9.934;2023-06-10T13:10:20;29.07;;;9.13;;
15449;SDS011;7826;49.784;9.934;2023-06-10T13:12:47;6.97;;;6.17;;
15449;SDS011;7826;49.784;9.934;2023-06-10T13:15:14;6.00;;;5.50;;
15449;SDS011;7826;49.784;9.934;2023-06-10T13:17:41;11.07;;;8.30;;
15449;SDS011;7826;49.784;9.934;2023-06-10T13:20:08;8.53;;;5.97;;
15449;SDS011;7826;49.784;9.934;2023-06-10T13:22:35;162.10;;;19.33;;
15449;SDS011;7826;49.784;9.934;2023-06-10T13:25:03;6.93;;;5.43;;
15449;SDS011;7826;49.784;9.934;2023-06-10T13:27:30;9.90;;;5.80;;
15449;SDS011;7826;49.784;9.934;2023-06-10T13:29:57;40.67;;;8.75;;
15449;SDS011;7826;49.784;9.934;2023-06-10T13:32:24;8.02;;;6.20;;
15449;SDS011;7826;49.784;9.934;2023-06-10T13:34:50;7.50;;;6.20;;
15449;SDS011;7826;49.784;9.934;2023-06-10T13:37:17;6.20;;;5.70;;
15449;SDS011;7826;49.784;9.934;2023-06-10T13:39:44;8.50;;;5.90;;
15449;SDS011;7826;49.784;9.934;2023-06-10T13:42:12;7.25;;;6.45;;
15449;SDS011;7826;49.784;9.934;2023-06-10T13:44:39;7.73;;;5.87;;
15449;SDS011;7826;49.784;9.934;2023-06-10T13:47:06;6.15;;;5.65;;
15449;SDS011;7826;49.784;9.934;2023-06-10T13:49:32;6.38;;;5.90;;
15449;SDS011;7826;49.784;9.934;2023-06-10T13:51:59;10.15;;;5.95;;
15449;SDS011;7826;49.784;9.934;2023-06-10T13:54:25;8.15;;;6.70;;
15449;SDS011;7826;49.784;9.934;2023-06-10T13:56:53;7.15;;;6.45;;
15449;SDS011;7826;49.784;9.934;2023-06-10T13:59:19;8.88;;;6.47;;
15449;SDS011;7826;49.784;9.934;2023-06-10T14:01:47;6.88;;;6.13;;
15449;SDS011;7826;49.784;9.934;2023-06-10T14:04:13;17.05;;;7.35;;
15449;SDS011;7826;49.784;9.934;2023-06-10T14:06:40;13.68;;;7.05;;
15449;SDS011;7826;49.784;9.934;2023-06-10T14:09:07;8.20;;;6.65;;
15449;SDS011;7826;49.784;9.934;2023-06-10T14:11:33;6.30;;;5.82;;
15449;SDS011;7826;49.784;9.934;2023-06-10T14:14:00;6.45;;;5.85;;
15449;SDS011;7826;49.784;9.934;2023-06-10T14:16:27;10.52;;;7.35;;
15449;SDS011;7826;49.784;9.934;2023-06-10T14:18:53;16.48;;;8.30;;
15449;SDS011;7826;49.784;9.934;2023-06-10T14:21:20;16.75;;;10.18;;
15449;SDS011;7826;49.784;9.934;2023-06-10T14:23:46;13.90;;;8.35;;
15449;SDS011;7826;49.784;9.934;2023-06-10T14:26:14;13.95;;;9.15;;
15449;SDS011;7826;49.784;9.934;2023-06-10T14:28:41;8.13;;;7.32;;
15449;SDS011;7826;49.784;9.934;2023-06-10T14:31:07;8.23;;;7.63;;
15449;SDS011;7826;49.784;9.934;2023-06-10T14:33:34;8.77;;;7.90;;
15449;SDS011;7826;49.784;9.934;2023-06-10T14:36:00;51.30;;;11.88;;
15449;SDS011;7826;49.784;9.934;2023-06-10T14:38:27;77.90;;;13.05;;
15449;SDS011;7826;49.784;9.934;2023-06-10T14:40:53;8.75;;;7.80;;
15449;SDS011;7826;49.784;9.934;2023-06-10T14:43:20;8.50;;;7.63;;
15449;SDS011;7826;49.784;9.934;2023-06-10T14:45:46;9.55;;;7.53;;
15449;SDS011;7826;49.784;9.934;2023-06-10T14:48:13;8.75;;;7.95;;
15449;SDS011;7826;49.784;9.934;2023-06-10T14:50:39;8.63;;;7.80;;
15449;SDS011;7826;49.784;9.934;2023-06-10T14:53:07;8.43;;;7.47;;
15449;SDS011;7826;49.784;9.934;2023-06-10T14:55:34;6.87;;;6.27;;
15449;SDS011;7826;49.784;9.934;2023-06-10T14:58:00;9.63;;;8.27;;
15449;SDS011;7826;49.784;9.934;2023-06-10T15:00:27;9.00;;;8.03;;
15449;SDS011;7826;49.784;9.934;2023-06-10T15:02:54;9.80;;;8.07;;
15449;SDS011;7826;49.784;9.934;2023-06-10T15:05:23;7.53;;;6.83;;
15449;SDS011;7826;49.784;9.934;2023-06-10T15:07:51;7.97;;;7.17;;
15449;SDS011;7826;49.784;9.934;2023-06-10T15:10:17;6.47;;;5.87;;
15449;SDS011;7826;49.784;9.934;2023-06-10T15:12:44;6.70;;;6.00;;
15449;SDS011;7826;49.784;9.934;2023-06-10T15:15:10;8.33;;;5.87;;
15449;SDS011;7826;49.784;9.934;2023-06-10T15:17:37;7.67;;;6.17;;
15449;SDS011;7826;49.784;9.934;2023-06-10T15:20:03;6.93;;;6.30;;
15449;SDS011;7826;49.784;9.934;2023-06-10T15:22:31;7.13;;;6.47;;
15449;SDS011;7826;49.784;9.934;2023-06-10T15:24:57;7.67;;;6.63;;
15449;SDS011;7826;49.784;9.934;2023-06-10T15:27:24;6.80;;;6.20;;
15449;SDS011;7826;49.784;9.934;2023-06-10T15:29:50;7.80;;;7.10;;